createdAt,value
2023-01-21T00:08:12.139Z,0.34
2023-01-21T00:18:15.177Z,0.33
2023-01-21T00:28:19.479Z,0.13
2023-01-21T00:38:22.838Z,0.33
2023-01-21T00:48:25.282Z,-0.82
2023-01-21T00:58:27.865Z,0.13
2023-01-21T01:08:30.224Z,-0.06
2023-01-21T01:18:35.111Z,0.50
2023-01-21T01:28:40.611Z,0.29
2023-01-21T01:38:43.995Z,0.47
2023-01-21T01:48:50.877Z,-0.10
2023-01-21T01:58:53.210Z,0.05
2023-01-21T02:08:55.983Z,0.30
2023-01-21T02:19:35.730Z,-0.18
2023-01-21T02:30:02.896Z,0.03
2023-01-21T02:40:25.557Z,-0.68
2023-01-21T02:50:30.374Z,-0.25
2023-01-21T03:00:55.505Z,0.05
2023-01-21T03:11:11.796Z,-0.10
2023-01-21T03:21:17.777Z,-0.68
2023-01-21T03:31:24.236Z,-0.14
2023-01-21T03:41:33.519Z,0.09
2023-01-21T03:51:40.254Z,0.01
2023-01-21T04:01:42.328Z,-1.00
2023-01-21T04:11:44.612Z,-0.61
2023-01-21T04:21:46.769Z,-0.70
2023-01-21T04:31:49.952Z,-1.01
2023-01-21T04:41:52.076Z,-0.68
2023-01-21T04:51:54.236Z,-0.89
2023-01-21T05:01:56.529Z,-1.18
2023-01-21T05:11:58.604Z,-0.75
2023-01-21T05:22:00.942Z,-0.72
2023-01-21T05:32:03.111Z,-0.71
2023-01-21T05:42:05.305Z,-1.09
2023-01-21T05:52:07.457Z,-0.99
2023-01-21T06:02:10.203Z,-0.86
2023-01-21T06:12:12.482Z,-0.87
2023-01-21T06:22:18.472Z,-1.01
2023-01-21T06:32:20.878Z,-0.90
2023-01-21T06:42:24.054Z,-0.82
2023-01-21T06:52:26.381Z,-0.60
2023-01-21T07:02:28.499Z,-0.29
2023-01-21T07:12:30.779Z,-0.06
2023-01-21T07:22:36.149Z,-0.36
2023-01-21T07:32:38.337Z,-0.09
2023-01-21T07:42:40.636Z,-0.09
2023-01-21T07:52:47.063Z,0.27
2023-01-21T08:02:54.407Z,0.44
2023-01-21T08:12:57.540Z,0.43
2023-01-21T08:23:00.593Z,0.19
2023-01-21T08:33:03.862Z,0.86
2023-01-21T08:43:09.265Z,0.51
2023-01-21T08:53:11.860Z,0.83
2023-01-21T09:03:17.010Z,1.01
2023-01-21T09:13:20.168Z,0.90
2023-01-21T09:23:26.251Z,1.36
2023-01-21T09:33:30.251Z,1.31
2023-01-21T09:43:38.456Z,1.51
2023-01-21T09:53:48.939Z,1.88
2023-01-21T10:04:32.397Z,1.54
2023-01-21T10:14:50.635Z,1.71
2023-01-21T10:25:00.270Z,2.09
2023-01-21T10:35:03.006Z,2.27
2023-01-21T10:45:26.728Z,2.53
2023-01-21T10:55:36.384Z,2.30
2023-01-21T11:05:38.738Z,2.13
2023-01-21T11:15:46.200Z,2.33
2023-01-21T11:25:49.093Z,2.23
2023-01-21T11:35:53.543Z,2.27
2023-01-21T11:45:57.103Z,2.49
2023-01-21T11:56:02.726Z,2.43
2023-01-21T12:06:07.123Z,2.46
2023-01-21T12:16:24.805Z,2.63
2023-01-21T12:26:50.664Z,2.54
2023-01-21T12:36:58.029Z,2.45
2023-01-21T12:47:06.173Z,2.45
2023-01-21T12:57:22.179Z,2.65
2023-01-21T13:07:47.470Z,2.33
2023-01-21T13:17:52.799Z,1.99
2023-01-21T13:28:19.867Z,2.44
2023-01-21T13:38:27.709Z,2.50
2023-01-21T13:48:32.813Z,2.54
2023-01-21T13:58:57.552Z,2.17
2023-01-21T14:09:29.590Z,2.09
2023-01-21T14:19:53.028Z,2.21
2023-01-21T14:30:07.027Z,2.34
2023-01-21T14:40:17.210Z,2.24
2023-01-21T14:50:52.643Z,3.12
2023-01-21T15:00:55.100Z,2.82
2023-01-21T15:11:05.782Z,2.64
2023-01-21T15:21:43.538Z,2.51
2023-01-21T15:31:45.992Z,2.10
2023-01-21T15:42:19.685Z,2.68
2023-01-21T15:52:40.708Z,2.45
2023-01-21T16:02:52.258Z,2.45
2023-01-21T16:13:13.919Z,2.34
2023-01-21T16:23:17.386Z,1.81
2023-01-21T16:33:19.596Z,2.36
2023-01-21T16:43:24.841Z,2.58
2023-01-21T16:53:27.659Z,2.66
2023-01-21T17:03:29.886Z,2.74
2023-01-21T17:13:32.366Z,2.64
2023-01-21T17:23:37.447Z,2.21
2023-01-21T17:33:40.222Z,2.31
2023-01-21T17:43:49.013Z,2.50
2023-01-21T17:53:56.276Z,1.93
2023-01-21T18:03:58.468Z,2.05
2023-01-21T18:14:00.643Z,2.24
2023-01-21T18:24:03.091Z,1.63
2023-01-21T18:34:06.431Z,1.99
2023-01-21T18:44:08.768Z,1.90
2023-01-21T18:54:13.453Z,1.96
2023-01-21T19:04:18.230Z,2.44
2023-01-21T19:14:20.736Z,1.99
2023-01-21T19:24:22.896Z,2.23
2023-01-21T19:34:26.793Z,1.96
2023-01-21T19:44:30.104Z,2.16
2023-01-21T19:54:33.211Z,2.60
2023-01-21T20:04:35.543Z,2.11
2023-01-21T20:14:38.762Z,2.37
2023-01-21T20:24:40.946Z,2.29
2023-01-21T20:34:43.368Z,2.16
2023-01-21T20:44:45.640Z,2.16
2023-01-21T20:54:47.922Z,1.98
2023-01-21T21:04:50.397Z,2.10
2023-01-21T21:14:53.708Z,2.35
2023-01-21T21:24:55.890Z,2.11
2023-01-21T21:34:59.451Z,2.02
2023-01-21T21:45:03.078Z,2.28
2023-01-21T21:55:05.804Z,1.95
2023-01-21T22:05:11.496Z,2.06
2023-01-21T22:15:13.883Z,2.15
2023-01-21T22:25:16.642Z,2.24
2023-01-21T22:35:19.353Z,2.08
2023-01-21T22:45:22.253Z,2.11
2023-01-21T22:55:24.823Z,2.56
2023-01-21T23:05:30.858Z,2.02
2023-01-21T23:15:33.177Z,2.40
2023-01-21T23:25:43.443Z,1.67
2023-01-21T23:35:47.706Z,2.03
2023-01-21T23:45:51.009Z,2.20
2023-01-21T23:56:03.239Z,2.37
